Impacts TAF Board
For situational awareness. Not to be used for flight planning purposes.
IDs:

KRIL - Rifle/Garfield Cnty, CO, US

Issued at 1724 UTC 17 Nov 2019
Updated at 1950 UTC 17 Nov 2019
Potential Impact None Slight Moderate High
Time1853Z 17/20Z 17/21Z 17/22Z 17/23Z 18/00Z 18/01Z 18/02Z 18/03Z 18/04Z 18/05Z 18/06Z 18/07Z 18/08Z>>
Type OBS PRVL PRVL PRVL PRVL PRVL PRVL PRVL PRVL PRVL PRVL PRVL PRVL PRVL
VIS 10 >6 >6 >6 >6 >6 >6 >6 >6 >6 >6 >6 >6 >6
CIG -- -- -- -- -- -- -- -- -- -- -- -- -- --
Cover CLR SCT SCT SCT SCT SCT SCT SCT SCT SCT SCT SCT SCT SCT
FltCat VFR VFR VFR VFR VFR VFR VFR VFR VFR VFR VFR VFR VFR VFR
WX -- -- -- -- -- -- -- -- -- -- -- -- -- --
WDir VRB 250 250 250 250 250 250 VRB VRB VRB VRB VRB VRB VRB
WSpd 0 6 6 6 6 6 6 3 3 3 3 3 3 3
WGst -- -- -- -- -- -- -- -- -- -- -- -- -- --
Raw TAF
KRIL 171724Z 1718/1818 00000KT P6SM FEW250
  FM172000 25006KT P6SM SCT250
  FM180200 VRB03KT P6SM SCT250


Raw METAR
KRIL 171853Z AUTO 00000KT 10SM CLR 09/M06 A3030 RMK AO2 SLP252 T00941056
KRIL 171753Z AUTO 00000KT 10SM CLR 07/M06 A3034 RMK AO2 SLP261 T00671056 10067 21050 58006
KRIL 171653Z AUTO 00000KT 10SM CLR 04/M06 A3036 RMK AO2 SLP271 T00391056

METAR Board
Radar Display
Forecast Discussion
For situational awareness. Not to be used for flight planning purposes.